ADDS METAR Data INFO
IDs: Format: Raw Decoded Include TAF

Data at: 0319 UTC 20 Jul 2018

KFDK 200255Z AUTO 11003KT 10SM CLR 23/13 A3011 RMK AO2
KFDK 200235Z AUTO 11003KT 10SM CLR 23/13 A3011 RMK AO2
KFDK 200215Z AUTO 12004KT 10SM SCT065 23/13 A3011 RMK AO2
KFDK 200155Z AUTO 12004KT 10SM CLR 23/14 A3010 RMK AO2 LTG DSNT W
KFDK 200135Z AUTO 12004KT 10SM SCT065 23/15 A3010 RMK AO2
KFDK 200115Z AUTO 00000KT 7SM CLR 22/16 A3009 RMK AO2
KFDK 200055Z AUTO 10003KT 10SM CLR 23/16 A3009 RMK AO2
KFDK 200047Z 00000KT 10SM SKC 24/16 A3009
KFDK 192347Z 00000KT 10SM SKC 28/13 A3008
KFDK 192247Z 00000KT 10SM SKC 29/10 A3008
KFDK 192147Z 00000KT 10SM SKC 29/08 A3009
KFDK 192047Z 23006KT 10SM SKC 29/11 A3010
KFDK 191947Z 00000KT 10SM SKC 29/10 A3010
KFDK 191847Z 00000KT 10SM SKC 29/11 A3011
KFDK 191747Z VRB04KT 10SM SKC 28/11 A3013
KFDK 191648Z 03004KT 10SM SKC 27/11 A3015
KFDK 191554Z 00000KT 10SM SKC 26/11 A3015
KFDK 191446Z 02003KT 10SM SKC 25/12 A3015
KFDK 191347Z 01004KT 10SM SKC 23/11 A3015
KFDK 191248Z 04004KT 10SM SKC 22/11 A3015
KFDK 191150Z 03004KT 10SM SKC 20/13 A3014
KFDK 191045Z AUTO 02004KT 10SM SCT075 17/17 A3012 RMK AO2
KFDK 191035Z AUTO 03004KT 10SM SCT075 17/17 A3012 RMK AO2
KFDK 191015Z AUTO 02003KT 10SM SCT075 17/17 A3011 RMK AO2
KFDK 190955Z AUTO 00000KT 10SM SCT080 17/17 A3011 RMK AO2
KFDK 190935Z AUTO 02003KT 10SM BKN080 17/17 A3011 RMK AO2
KFDK 190915Z AUTO 03004KT 10SM BKN080 17/17 A3011 RMK AO2
KFDK 190855Z AUTO 03003KT 10SM BKN080 17/17 A3010 RMK AO2
KFDK 190835Z AUTO 00000KT 10SM SCT080 18/18 A3010 RMK AO2
KFDK 190815Z AUTO 36003KT 10SM SCT080 18/18 A3010 RMK AO2
KFDK 190755Z AUTO 01004KT 10SM BKN080 18/18 A3009 RMK AO2
KFDK 190735Z AUTO 01003KT 10SM BKN080 18/18 A3008 RMK AO2
KFDK 190715Z AUTO 04003KT 10SM SCT070 BKN080 17/17 A3007 RMK AO2 LTG DSNT W
KFDK 190655Z AUTO 00000KT 10SM OVC070 17/17 A3007 RMK AO2
KFDK 190635Z AUTO 00000KT 10SM BKN075 17/17 A3007 RMK AO2
KFDK 190615Z AUTO 00000KT 10SM BKN075 17/17 A3007 RMK AO2
KFDK 190555Z AUTO 00000KT 10SM BKN075 17/17 A3007 RMK AO2
KFDK 190535Z AUTO 00000KT 7SM CLR 17/17 A3007 RMK AO2
KFDK 190515Z AUTO 00000KT 10SM CLR 18/18 A3006 RMK AO2
KFDK 190455Z AUTO 00000KT 10SM CLR 18/18 A3005 RMK AO2
KFDK 190435Z AUTO 00000KT 10SM SCT070 18/18 A3004 RMK AO2
KFDK 190415Z AUTO 00000KT 10SM SCT070 18/18 A3004 RMK AO2
KFDK 190355Z AUTO 00000KT 10SM SCT065 SCT075 19/19 A3004 RMK AO2
KFDK 190335Z AUTO 00000KT 10SM BKN065 BKN075 19/19 A3004 RMK AO2
KFDK 190315Z AUTO 00000KT 10SM BKN065 BKN075 19/19 A3003 RMK AO2
KFDK 190255Z AUTO 00000KT 10SM BKN065 19/19 A3003 RMK AO2
KFDK 190235Z AUTO 00000KT 10SM SCT065 18/18 A3003 RMK AO2
KFDK 190215Z AUTO 00000KT 10SM SCT065 20/20 A3003 RMK AO2
KFDK 190155Z AUTO 00000KT 10SM SCT065 20/20 A3002 RMK AO2
KFDK 190135Z AUTO 00000KT 10SM CLR 20/20 A3002 RMK AO2
KFDK 190115Z AUTO 00000KT 10SM CLR 21/18 A3001 RMK AO2
KFDK 190055Z AUTO 00000KT 10SM SCT075 22/17 A3000 RMK AO2
KFDK 190047Z 00000KT 10SM SCT080 28/11 A3000
KFDK 182347Z 00000KT 10SM SCT080 28/12 A2999
KFDK 182247Z 00000KT 10SM SCT080 27/11 A2999
KFDK 182147Z 01005KT 10SM SCT085 28/11 A2998
KFDK 182047Z 05004KT 10SM BKN090 29/11 A2999
KFDK 181947Z 36004KT 10SM BKN080 29/08 A3000
KFDK 181847Z 02008KT 10SM BKN080 28/07 A3000
KFDK 181747Z 03005KT 10SM BKN070 28/09 A3000
KFDK 181650Z 35003KT 10SM SCT040 28/11 A3001
KFDK 181548Z 04007KT 10SM SCT040 21/09 A3002